AFL1073 UMKK-UUEE
Flight info
| Callsign | AFL1073 |
|---|---|
| Flight time | N/A |
| Altitude | 35000 |
| Route | PELUG DCT OTVOV DCT KEDUX DCT PIVAX DCT PIRUX DCT PISIM DCT PIDIN DCT ARANS/K0832F350 DCT PISIS DCT MIGTU T73 NAMIN |
| Aircraft | A321/M-SDE3FGHIRWY/LB1 |
Departure
| Time | 2026-04-29 14:26 |
|---|---|
| Airport | Khrabrovo Airport (UMKK) |
Arrival
| Time | N/A |
|---|---|
| Airport | Sheremetyevo International Airport (UUEE) |
| Time | Latitude | Longitude | Altitude | Speed | Heading |
|---|---|---|---|---|---|
| 2026-04-29 14:17 | 54.88459 | 20.58565 | 38 ft | 2 kts | 234° |
| 2026-04-29 14:17 | 54.88462 | 20.58575 | 38 ft | 1 kts | 252° |
| 2026-04-29 14:17 | 54.88464 | 20.58583 | 38 ft | 0 kts | 247° |
| 2026-04-29 14:18 | 54.88463 | 20.58579 | 38 ft | 1 kts | 247° |
| 2026-04-29 14:19 | 54.88458 | 20.58560 | 38 ft | 2 kts | 247° |
| 2026-04-29 14:19 | 54.88448 | 20.58518 | 38 ft | 4 kts | 246° |
| 2026-04-29 14:19 | 54.88431 | 20.58454 | 38 ft | 6 kts | 244° |
| 2026-04-29 14:19 | 54.88406 | 20.58388 | 38 ft | 6 kts | 237° |
| 2026-04-29 14:20 | 54.88377 | 20.58317 | 38 ft | 7 kts | 233° |
| 2026-04-29 14:20 | 54.88342 | 20.58245 | 39 ft | 8 kts | 231° |
| 2026-04-29 14:20 | 54.88316 | 20.58158 | 39 ft | 8 kts | 246° |
| 2026-04-29 14:20 | 54.88291 | 20.58063 | 39 ft | 8 kts | 246° |
| 2026-04-29 14:21 | 54.88265 | 20.57962 | 39 ft | 9 kts | 246° |
| 2026-04-29 14:21 | 54.88239 | 20.57857 | 39 ft | 9 kts | 248° |
| 2026-04-29 14:21 | 54.88229 | 20.57754 | 39 ft | 3 kts | 288° |
| 2026-04-29 14:21 | 54.88248 | 20.57728 | 39 ft | 4 kts | 336° |
| 2026-04-29 14:22 | 54.88280 | 20.57703 | 39 ft | 4 kts | 336° |
| 2026-04-29 14:22 | 54.88310 | 20.57680 | 39 ft | 4 kts | 336° |
| 2026-04-29 14:22 | 54.88335 | 20.57661 | 39 ft | 1 kts | 336° |
| 2026-04-29 14:22 | 54.88348 | 20.57650 | 39 ft | 2 kts | 336° |
| 2026-04-29 14:23 | 54.88367 | 20.57635 | 39 ft | 3 kts | 335° |
| 2026-04-29 14:23 | 54.88401 | 20.57608 | 39 ft | 7 kts | 336° |
| 2026-04-29 14:23 | 54.88460 | 20.57562 | 39 ft | 10 kts | 336° |
| 2026-04-29 14:23 | 54.88517 | 20.57518 | 39 ft | 5 kts | 338° |
| 2026-04-29 14:24 | 54.88553 | 20.57525 | 39 ft | 5 kts | 35° |
| 2026-04-29 14:24 | 54.88567 | 20.57560 | 39 ft | 0 kts | 64° |
| 2026-04-29 14:25 | 54.88568 | 20.57561 | 39 ft | 0 kts | 64° |
| 2026-04-29 14:25 | 54.88574 | 20.57582 | 39 ft | 9 kts | 64° |
| 2026-04-29 14:25 | 54.88720 | 20.58139 | 37 ft | 89 kts | 66° |
| 2026-04-29 14:26 | 54.89064 | 20.59476 | 35 ft | 153 kts | 65° |
| 2026-04-29 14:26 | 54.89556 | 20.61279 | 480 ft | 169 kts | 60° |
| 2026-04-29 14:26 | 54.90024 | 20.63101 | 1286 ft | 166 kts | 61° |
| 2026-04-29 14:26 | 54.90475 | 20.64908 | 2078 ft | 164 kts | 61° |
| 2026-04-29 14:27 | 54.92160 | 20.70299 | 3092 ft | 198 kts | 30° |
| 2026-04-29 14:28 | 54.94941 | 20.69645 | 3795 ft | 232 kts | 332° |
| 2026-04-29 14:28 | 54.96392 | 20.68175 | 4250 ft | 247 kts | 332° |
| 2026-04-29 14:28 | 54.97872 | 20.66711 | 4945 ft | 251 kts | 333° |
| 2026-04-29 14:28 | 54.99402 | 20.65265 | 5734 ft | 252 kts | 334° |
| 2026-04-29 14:29 | 55.00965 | 20.63837 | 6519 ft | 255 kts | 335° |
| 2026-04-29 14:29 | 55.02516 | 20.62454 | 7272 ft | 257 kts | 335° |
| 2026-04-29 14:29 | 55.04122 | 20.61043 | 8046 ft | 260 kts | 336° |
| 2026-04-29 14:29 | 55.05721 | 20.59653 | 8775 ft | 263 kts | 336° |
| 2026-04-29 14:30 | 55.07366 | 20.58228 | 9517 ft | 267 kts | 336° |
| 2026-04-29 14:30 | 55.09033 | 20.56790 | 10277 ft | 270 kts | 337° |
| 2026-04-29 14:30 | 55.10714 | 20.55343 | 10927 ft | 276 kts | 337° |
| 2026-04-29 14:30 | 55.12494 | 20.53816 | 11278 ft | 293 kts | 337° |
| 2026-04-29 14:31 | 55.14373 | 20.52203 | 11617 ft | 308 kts | 337° |
| 2026-04-29 14:31 | 55.16300 | 20.50543 | 12194 ft | 314 kts | 337° |
| 2026-04-29 14:31 | 55.18273 | 20.48839 | 12911 ft | 316 kts | 337° |
| 2026-04-29 14:31 | 55.20226 | 20.47151 | 13576 ft | 319 kts | 337° |
| 2026-04-29 14:32 | 55.22207 | 20.45436 | 14223 ft | 322 kts | 338° |
| 2026-04-29 14:32 | 55.24228 | 20.43689 | 14860 ft | 325 kts | 338° |
| 2026-04-29 14:32 | 55.26244 | 20.41946 | 15479 ft | 327 kts | 337° |
| 2026-04-29 14:32 | 55.28285 | 20.40181 | 16085 ft | 330 kts | 337° |
| 2026-04-29 14:33 | 55.30353 | 20.38388 | 16551 ft | 337 kts | 337° |
| 2026-04-29 14:33 | 55.32465 | 20.36554 | 17030 ft | 343 kts | 337° |
| 2026-04-29 14:33 | 55.34591 | 20.34703 | 17604 ft | 345 kts | 336° |
| 2026-04-29 14:33 | 55.36770 | 20.32803 | 18160 ft | 347 kts | 336° |
| 2026-04-29 14:34 | 55.38925 | 20.30921 | 18676 ft | 350 kts | 336° |
| 2026-04-29 14:34 | 55.41098 | 20.29021 | 19201 ft | 353 kts | 336° |
| 2026-04-29 14:34 | 55.43279 | 20.27108 | 19723 ft | 355 kts | 337° |
| 2026-04-29 14:34 | 55.45507 | 20.25156 | 20225 ft | 357 kts | 337° |
| 2026-04-29 14:35 | 55.47734 | 20.23201 | 20712 ft | 360 kts | 338° |
| 2026-04-29 14:35 | 55.49966 | 20.21240 | 21195 ft | 362 kts | 338° |
| 2026-04-29 14:35 | 55.52211 | 20.19266 | 21682 ft | 363 kts | 339° |
| 2026-04-29 14:35 | 55.54466 | 20.17284 | 22145 ft | 366 kts | 339° |
| 2026-04-29 14:36 | 55.56737 | 20.15282 | 22629 ft | 367 kts | 339° |
| 2026-04-29 14:36 | 55.59018 | 20.13270 | 23102 ft | 368 kts | 340° |
| 2026-04-29 14:36 | 55.61303 | 20.11252 | 23535 ft | 370 kts | 340° |
| 2026-04-29 14:36 | 55.63605 | 20.09214 | 23982 ft | 371 kts | 340° |